sensor_id;sensor_type;location;lat;lon;timestamp;P1;durP1;ratioP1;P2;durP2;ratioP2
49824;SDS011;35714;55.708;37.478;2023-09-12T00:01:00;21.17;;;14.15;;
49824;SDS011;35714;55.708;37.478;2023-09-12T00:03:31;24.33;;;15.35;;
49824;SDS011;35714;55.708;37.478;2023-09-12T00:05:57;25.33;;;16.25;;
49824;SDS011;35714;55.708;37.478;2023-09-12T00:08:24;26.33;;;16.80;;
49824;SDS011;35714;55.708;37.478;2023-09-12T00:11:06;23.50;;;14.80;;
49824;SDS011;35714;55.708;37.478;2023-09-12T00:13:41;21.73;;;14.52;;
49824;SDS011;35714;55.708;37.478;2023-09-12T00:16:07;26.13;;;15.70;;
49824;SDS011;35714;55.708;37.478;2023-09-12T00:18:39;27.65;;;16.17;;
49824;SDS011;35714;55.708;37.478;2023-09-12T00:21:04;26.48;;;16.70;;
49824;SDS011;35714;55.708;37.478;2023-09-12T00:23:30;24.48;;;15.00;;
49824;SDS011;35714;55.708;37.478;2023-09-12T00:25:56;22.40;;;15.68;;
49824;SDS011;35714;55.708;37.478;2023-09-12T00:28:22;21.40;;;14.52;;
49824;SDS011;35714;55.708;37.478;2023-09-12T00:30:49;23.50;;;14.55;;
49824;SDS011;35714;55.708;37.478;2023-09-12T00:33:14;23.98;;;16.25;;
49824;SDS011;35714;55.708;37.478;2023-09-12T00:35:40;25.70;;;15.15;;
49824;SDS011;35714;55.708;37.478;2023-09-12T00:38:06;23.45;;;15.52;;
49824;SDS011;35714;55.708;37.478;2023-09-12T00:40:33;25.33;;;16.52;;
49824;SDS011;35714;55.708;37.478;2023-09-12T00:42:59;22.15;;;14.45;;
49824;SDS011;35714;55.708;37.478;2023-09-12T00:45:25;24.15;;;15.57;;
49824;SDS011;35714;55.708;37.478;2023-09-12T00:47:51;23.48;;;15.20;;
49824;SDS011;35714;55.708;37.478;2023-09-12T00:50:18;25.85;;;15.52;;
49824;SDS011;35714;55.708;37.478;2023-09-12T00:52:46;22.75;;;14.77;;
49824;SDS011;35714;55.708;37.478;2023-09-12T00:55:13;24.40;;;15.15;;
49824;SDS011;35714;55.708;37.478;2023-09-12T00:57:40;26.17;;;15.48;;
49824;SDS011;35714;55.708;37.478;2023-09-12T01:00:06;24.95;;;15.52;;
49824;SDS011;35714;55.708;37.478;2023-09-12T01:02:39;22.67;;;15.38;;
49824;SDS011;35714;55.708;37.478;2023-09-12T01:05:06;25.55;;;16.45;;
49824;SDS011;35714;55.708;37.478;2023-09-12T01:07:33;26.40;;;16.25;;
49824;SDS011;35714;55.708;37.478;2023-09-12T01:10:01;24.02;;;16.00;;
49824;SDS011;35714;55.708;37.478;2023-09-12T01:12:30;23.17;;;15.88;;
49824;SDS011;35714;55.708;37.478;2023-09-12T01:14:56;24.80;;;15.20;;
49824;SDS011;35714;55.708;37.478;2023-09-12T01:17:22;22.70;;;16.13;;
49824;SDS011;35714;55.708;37.478;2023-09-12T01:19:48;25.35;;;16.25;;
49824;SDS011;35714;55.708;37.478;2023-09-12T01:27:46;26.00;;;15.43;;
49824;SDS011;35714;55.708;37.478;2023-09-12T01:30:16;23.50;;;15.90;;
49824;SDS011;35714;55.708;37.478;2023-09-12T01:32:43;26.92;;;17.20;;
49824;SDS011;35714;55.708;37.478;2023-09-12T01:35:09;24.65;;;16.40;;
49824;SDS011;35714;55.708;37.478;2023-09-12T01:37:35;26.20;;;16.95;;
49824;SDS011;35714;55.708;37.478;2023-09-12T01:40:01;25.23;;;16.15;;
49824;SDS011;35714;55.708;37.478;2023-09-12T01:42:31;24.60;;;16.50;;
49824;SDS011;35714;55.708;37.478;2023-09-12T01:45:09;22.02;;;15.35;;
49824;SDS011;35714;55.708;37.478;2023-09-12T01:47:36;25.58;;;16.10;;
49824;SDS011;35714;55.708;37.478;2023-09-12T01:50:03;24.42;;;16.17;;
49824;SDS011;35714;55.708;37.478;2023-09-12T01:52:33;25.60;;;15.68;;
49824;SDS011;35714;55.708;37.478;2023-09-12T01:54:59;27.40;;;16.33;;
49824;SDS011;35714;55.708;37.478;2023-09-12T01:57:25;24.77;;;16.38;;
49824;SDS011;35714;55.708;37.478;2023-09-12T01:59:51;30.98;;;18.08;;
49824;SDS011;35714;55.708;37.478;2023-09-12T02:02:17;26.00;;;17.63;;
49824;SDS011;35714;55.708;37.478;2023-09-12T02:04:51;28.85;;;18.08;;
49824;SDS011;35714;55.708;37.478;2023-09-12T02:07:24;30.90;;;18.35;;
49824;SDS011;35714;55.708;37.478;2023-09-12T02:09:51;26.92;;;17.77;;
49824;SDS011;35714;55.708;37.478;2023-09-12T02:12:17;27.95;;;18.55;;
49824;SDS011;35714;55.708;37.478;2023-09-12T02:14:43;26.40;;;17.63;;
49824;SDS011;35714;55.708;37.478;2023-09-12T02:17:08;27.45;;;18.13;;
49824;SDS011;35714;55.708;37.478;2023-09-12T02:19:34;28.88;;;17.90;;
49824;SDS011;35714;55.708;37.478;2023-09-12T02:22:00;29.48;;;17.52;;
49824;SDS011;35714;55.708;37.478;2023-09-12T02:24:26;26.20;;;17.00;;
49824;SDS011;35714;55.708;37.478;2023-09-12T02:26:51;30.30;;;17.77;;
49824;SDS011;35714;55.708;37.478;2023-09-12T02:29:17;29.73;;;18.25;;
49824;SDS011;35714;55.708;37.478;2023-09-12T02:31:42;36.22;;;18.52;;
49824;SDS011;35714;55.708;37.478;2023-09-12T02:34:08;29.77;;;18.70;;
49824;SDS011;35714;55.708;37.478;2023-09-12T02:36:34;32.38;;;18.65;;
49824;SDS011;35714;55.708;37.478;2023-09-12T02:39:00;33.03;;;18.98;;
49824;SDS011;35714;55.708;37.478;2023-09-12T02:41:26;29.17;;;18.38;;
49824;SDS011;35714;55.708;37.478;2023-09-12T02:43:52;27.00;;;17.55;;
49824;SDS011;35714;55.708;37.478;2023-09-12T02:46:17;32.03;;;18.00;;
49824;SDS011;35714;55.708;37.478;2023-09-12T02:48:43;30.92;;;19.10;;
49824;SDS011;35714;55.708;37.478;2023-09-12T02:51:09;30.55;;;18.50;;
49824;SDS011;35714;55.708;37.478;2023-09-12T02:53:34;30.63;;;18.45;;
49824;SDS011;35714;55.708;37.478;2023-09-12T02:56:00;32.10;;;18.83;;
49824;SDS011;35714;55.708;37.478;2023-09-12T02:58:26;28.45;;;17.88;;
49824;SDS011;35714;55.708;37.478;2023-09-12T03:00:51;30.42;;;19.17;;
49824;SDS011;35714;55.708;37.478;2023-09-12T03:03:20;28.88;;;18.40;;
49824;SDS011;35714;55.708;37.478;2023-09-12T03:05:46;28.08;;;17.27;;
49824;SDS011;35714;55.708;37.478;2023-09-12T03:08:11;28.55;;;17.10;;
49824;SDS011;35714;55.708;37.478;2023-09-12T03:10:37;32.28;;;18.70;;
49824;SDS011;35714;55.708;37.478;2023-09-12T03:13:03;28.85;;;18.60;;
49824;SDS011;35714;55.708;37.478;2023-09-12T03:15:29;30.60;;;18.95;;
49824;SDS011;35714;55.708;37.478;2023-09-12T03:17:55;34.58;;;19.63;;
49824;SDS011;35714;55.708;37.478;2023-09-12T03:20:21;29.70;;;18.92;;
49824;SDS011;35714;55.708;37.478;2023-09-12T03:22:47;27.80;;;18.00;;
49824;SDS011;35714;55.708;37.478;2023-09-12T03:25:12;30.40;;;18.85;;
49824;SDS011;35714;55.708;37.478;2023-09-12T03:27:38;31.98;;;19.63;;
49824;SDS011;35714;55.708;37.478;2023-09-12T03:30:04;29.48;;;18.90;;
49824;SDS011;35714;55.708;37.478;2023-09-12T03:32:31;30.55;;;18.55;;
49824;SDS011;35714;55.708;37.478;2023-09-12T03:34:57;30.80;;;20.55;;
49824;SDS011;35714;55.708;37.478;2023-09-12T03:37:23;35.03;;;21.30;;
49824;SDS011;35714;55.708;37.478;2023-09-12T03:39:53;28.90;;;19.52;;
49824;SDS011;35714;55.708;37.478;2023-09-12T03:42:18;28.13;;;19.15;;
49824;SDS011;35714;55.708;37.478;2023-09-12T03:44:44;30.23;;;19.73;;
49824;SDS011;35714;55.708;37.478;2023-09-12T03:47:10;28.05;;;18.30;;
49824;SDS011;35714;55.708;37.478;2023-09-12T03:49:35;28.92;;;18.38;;
49824;SDS011;35714;55.708;37.478;2023-09-12T03:52:01;29.17;;;17.83;;
49824;SDS011;35714;55.708;37.478;2023-09-12T03:54:27;28.45;;;18.10;;
49824;SDS011;35714;55.708;37.478;2023-09-12T03:56:53;31.58;;;18.65;;
49824;SDS011;35714;55.708;37.478;2023-09-12T03:59:18;30.27;;;18.05;;
49824;SDS011;35714;55.708;37.478;2023-09-12T04:01:45;34.97;;;20.52;;
49824;SDS011;35714;55.708;37.478;2023-09-12T04:04:10;34.08;;;20.40;;
49824;SDS011;35714;55.708;37.478;2023-09-12T04:06:36;30.20;;;19.30;;
49824;SDS011;35714;55.708;37.478;2023-09-12T04:09:02;29.00;;;19.13;;
49824;SDS011;35714;55.708;37.478;2023-09-12T04:11:28;30.17;;;18.90;;
49824;SDS011;35714;55.708;37.478;2023-09-12T04:13:54;26.40;;;17.77;;
49824;SDS011;35714;55.708;37.478;2023-09-12T04:16:20;28.55;;;19.58;;
49824;SDS011;35714;55.708;37.478;2023-09-12T04:18:45;32.92;;;20.20;;
49824;SDS011;35714;55.708;37.478;2023-09-12T04:21:11;28.40;;;19.25;;
49824;SDS011;35714;55.708;37.478;2023-09-12T04:23:37;31.40;;;21.25;;
49824;SDS011;35714;55.708;37.478;2023-09-12T04:26:02;32.85;;;20.90;;
49824;SDS011;35714;55.708;37.478;2023-09-12T04:28:29;29.42;;;19.70;;
49824;SDS011;35714;55.708;37.478;2023-09-12T04:31:01;28.00;;;19.08;;
49824;SDS011;35714;55.708;37.478;2023-09-12T04:33:28;34.38;;;23.02;;
49824;SDS011;35714;55.708;37.478;2023-09-12T04:35:56;29.88;;;19.55;;
49824;SDS011;35714;55.708;37.478;2023-09-12T04:38:23;29.83;;;19.27;;
49824;SDS011;35714;55.708;37.478;2023-09-12T04:40:53;37.38;;;22.52;;
49824;SDS011;35714;55.708;37.478;2023-09-12T04:43:20;32.15;;;20.20;;
49824;SDS011;35714;55.708;37.478;2023-09-12T04:45:45;31.30;;;20.00;;
49824;SDS011;35714;55.708;37.478;2023-09-12T04:48:11;30.98;;;20.15;;
49824;SDS011;35714;55.708;37.478;2023-09-12T04:50:40;29.58;;;19.45;;
49824;SDS011;35714;55.708;37.478;2023-09-12T04:53:07;29.42;;;20.35;;
49824;SDS011;35714;55.708;37.478;2023-09-12T04:55:36;30.45;;;19.40;;
49824;SDS011;35714;55.708;37.478;2023-09-12T04:58:03;28.77;;;19.55;;
49824;SDS011;35714;55.708;37.478;2023-09-12T05:00:29;29.08;;;18.60;;
49824;SDS011;35714;55.708;37.478;2023-09-12T05:02:55;34.42;;;20.30;;
49824;SDS011;35714;55.708;37.478;2023-09-12T05:05:20;33.72;;;20.83;;
49824;SDS011;35714;55.708;37.478;2023-09-12T05:07:46;36.28;;;21.60;;
49824;SDS011;35714;55.708;37.478;2023-09-12T05:10:12;33.40;;;20.75;;
49824;SDS011;35714;55.708;37.478;2023-09-12T05:12:38;31.52;;;21.85;;
49824;SDS011;35714;55.708;37.478;2023-09-12T05:15:03;34.78;;;20.98;;
49824;SDS011;35714;55.708;37.478;2023-09-12T05:17:31;31.23;;;20.05;;
49824;SDS011;35714;55.708;37.478;2023-09-12T05:19:56;30.38;;;19.80;;
49824;SDS011;35714;55.708;37.478;2023-09-12T05:22:22;31.60;;;19.77;;
49824;SDS011;35714;55.708;37.478;2023-09-12T05:24:48;33.05;;;20.17;;
49824;SDS011;35714;55.708;37.478;2023-09-12T05:27:15;33.72;;;20.55;;
49824;SDS011;35714;55.708;37.478;2023-09-12T05:29:40;34.70;;;21.85;;
49824;SDS011;35714;55.708;37.478;2023-09-12T05:32:06;34.72;;;20.63;;
49824;SDS011;35714;55.708;37.478;2023-09-12T05:34:33;33.60;;;20.08;;
49824;SDS011;35714;55.708;37.478;2023-09-12T05:36:59;35.78;;;21.98;;
49824;SDS011;35714;55.708;37.478;2023-09-12T05:39:24;33.13;;;21.17;;
49824;SDS011;35714;55.708;37.478;2023-09-12T05:41:50;33.05;;;21.83;;
49824;SDS011;35714;55.708;37.478;2023-09-12T05:44:16;36.15;;;22.73;;
49824;SDS011;35714;55.708;37.478;2023-09-12T05:46:47;34.58;;;21.60;;
49824;SDS011;35714;55.708;37.478;2023-09-12T05:49:16;29.67;;;20.50;;
49824;SDS011;35714;55.708;37.478;2023-09-12T05:51:43;29.20;;;19.27;;
49824;SDS011;35714;55.708;37.478;2023-09-12T05:54:09;29.17;;;19.83;;
49824;SDS011;35714;55.708;37.478;2023-09-12T05:56:36;27.85;;;18.30;;
49824;SDS011;35714;55.708;37.478;2023-09-12T05:59:02;31.92;;;19.30;;
49824;SDS011;35714;55.708;37.478;2023-09-12T06:01:28;29.40;;;19.05;;
49824;SDS011;35714;55.708;37.478;2023-09-12T06:03:53;26.20;;;17.83;;
49824;SDS011;35714;55.708;37.478;2023-09-12T06:06:19;26.70;;;18.13;;
49824;SDS011;35714;55.708;37.478;2023-09-12T06:08:45;26.55;;;19.00;;
49824;SDS011;35714;55.708;37.478;2023-09-12T06:11:10;28.25;;;18.50;;
49824;SDS011;35714;55.708;37.478;2023-09-12T06:13:36;23.92;;;16.80;;
49824;SDS011;35714;55.708;37.478;2023-09-12T06:16:03;23.67;;;16.52;;
49824;SDS011;35714;55.708;37.478;2023-09-12T06:18:31;25.92;;;18.55;;
49824;SDS011;35714;55.708;37.478;2023-09-12T06:20:58;24.40;;;18.67;;
49824;SDS011;35714;55.708;37.478;2023-09-12T06:23:24;37.42;;;26.30;;
49824;SDS011;35714;55.708;37.478;2023-09-12T06:25:50;26.35;;;18.42;;
49824;SDS011;35714;55.708;37.478;2023-09-12T06:28:25;24.80;;;15.90;;
49824;SDS011;35714;55.708;37.478;2023-09-12T06:30:52;23.95;;;17.77;;
49824;SDS011;35714;55.708;37.478;2023-09-12T06:33:18;25.98;;;17.83;;
49824;SDS011;35714;55.708;37.478;2023-09-12T06:35:47;25.17;;;18.17;;
49824;SDS011;35714;55.708;37.478;2023-09-12T06:38:14;26.05;;;17.42;;
49824;SDS011;35714;55.708;37.478;2023-09-12T06:40:39;26.00;;;18.80;;
49824;SDS011;35714;55.708;37.478;2023-09-12T06:43:05;26.77;;;17.33;;
49824;SDS011;35714;55.708;37.478;2023-09-12T06:45:30;26.98;;;18.67;;
49824;SDS011;35714;55.708;37.478;2023-09-12T06:47:58;25.38;;;17.85;;
49824;SDS011;35714;55.708;37.478;2023-09-12T06:50:23;23.23;;;17.08;;
49824;SDS011;35714;55.708;37.478;2023-09-12T06:52:49;25.15;;;18.13;;
49824;SDS011;35714;55.708;37.478;2023-09-12T06:55:15;24.92;;;17.27;;
49824;SDS011;35714;55.708;37.478;2023-09-12T06:57:40;26.05;;;17.35;;
49824;SDS011;35714;55.708;37.478;2023-09-12T07:00:07;20.52;;;16.83;;
49824;SDS011;35714;55.708;37.478;2023-09-12T07:02:34;23.23;;;16.38;;
49824;SDS011;35714;55.708;37.478;2023-09-12T07:04:59;24.88;;;16.05;;
49824;SDS011;35714;55.708;37.478;2023-09-12T07:07:25;23.08;;;16.75;;
49824;SDS011;35714;55.708;37.478;2023-09-12T07:09:51;21.60;;;16.38;;
49824;SDS011;35714;55.708;37.478;2023-09-12T07:12:16;21.42;;;15.95;;
49824;SDS011;35714;55.708;37.478;2023-09-12T07:14:42;20.88;;;16.20;;
49824;SDS011;35714;55.708;37.478;2023-09-12T07:17:08;21.55;;;15.10;;
49824;SDS011;35714;55.708;37.478;2023-09-12T07:19:33;20.58;;;14.02;;
49824;SDS011;35714;55.708;37.478;2023-09-12T07:21:59;21.63;;;15.55;;
49824;SDS011;35714;55.708;37.478;2023-09-12T07:24:25;21.80;;;15.90;;
49824;SDS011;35714;55.708;37.478;2023-09-12T07:26:51;21.38;;;15.00;;
49824;SDS011;35714;55.708;37.478;2023-09-12T07:29:17;21.33;;;15.30;;
49824;SDS011;35714;55.708;37.478;2023-09-12T07:31:43;21.10;;;14.57;;
49824;SDS011;35714;55.708;37.478;2023-09-12T07:34:09;17.10;;;13.25;;
49824;SDS011;35714;55.708;37.478;2023-09-12T07:36:35;18.15;;;14.05;;
49824;SDS011;35714;55.708;37.478;2023-09-12T07:39:01;19.33;;;13.15;;
49824;SDS011;35714;55.708;37.478;2023-09-12T07:41:28;17.98;;;11.35;;
49824;SDS011;35714;55.708;37.478;2023-09-12T07:43:54;17.00;;;13.02;;
49824;SDS011;35714;55.708;37.478;2023-09-12T07:46:20;16.58;;;12.30;;
49824;SDS011;35714;55.708;37.478;2023-09-12T07:48:46;18.35;;;12.13;;
49824;SDS011;35714;55.708;37.478;2023-09-12T07:51:12;18.60;;;10.80;;
49824;SDS011;35714;55.708;37.478;2023-09-12T07:53:40;17.30;;;11.98;;
49824;SDS011;35714;55.708;37.478;2023-09-12T07:56:06;15.40;;;12.68;;
49824;SDS011;35714;55.708;37.478;2023-09-12T07:58:33;14.93;;;11.63;;
49824;SDS011;35714;55.708;37.478;2023-09-12T08:00:59;11.65;;;9.80;;
49824;SDS011;35714;55.708;37.478;2023-09-12T08:03:30;15.90;;;12.23;;
49824;SDS011;35714;55.708;37.478;2023-09-12T08:05:56;14.18;;;10.30;;
49824;SDS011;35714;55.708;37.478;2023-09-12T08:08:23;11.55;;;9.40;;
49824;SDS011;35714;55.708;37.478;2023-09-12T08:10:49;15.57;;;10.77;;
49824;SDS011;35714;55.708;37.478;2023-09-12T08:13:14;14.30;;;11.73;;
49824;SDS011;35714;55.708;37.478;2023-09-12T08:15:40;13.90;;;9.40;;
49824;SDS011;35714;55.708;37.478;2023-09-12T08:18:06;12.77;;;10.40;;
49824;SDS011;35714;55.708;37.478;2023-09-12T08:20:31;12.13;;;9.10;;
49824;SDS011;35714;55.708;37.478;2023-09-12T08:22:57;13.05;;;9.52;;
49824;SDS011;35714;55.708;37.478;2023-09-12T08:28:16;14.52;;;9.15;;
49824;SDS011;35714;55.708;37.478;2023-09-12T08:30:44;13.60;;;10.80;;
49824;SDS011;35714;55.708;37.478;2023-09-12T08:33:11;12.32;;;10.00;;
49824;SDS011;35714;55.708;37.478;2023-09-12T08:35:37;10.25;;;8.50;;
49824;SDS011;35714;55.708;37.478;2023-09-12T08:38:02;11.90;;;8.60;;
49824;SDS011;35714;55.708;37.478;2023-09-12T08:40:28;10.98;;;8.98;;
49824;SDS011;35714;55.708;37.478;2023-09-12T08:42:55;11.68;;;8.55;;
49824;SDS011;35714;55.708;37.478;2023-09-12T08:45:22;11.75;;;8.77;;
49824;SDS011;35714;55.708;37.478;2023-09-12T08:47:52;12.27;;;8.65;;
49824;SDS011;35714;55.708;37.478;2023-09-12T08:50:19;11.80;;;8.93;;
49824;SDS011;35714;55.708;37.478;2023-09-12T08:52:46;11.90;;;9.45;;
49824;SDS011;35714;55.708;37.478;2023-09-12T08:55:13;14.25;;;10.18;;
49824;SDS011;35714;55.708;37.478;2023-09-12T08:57:40;9.95;;;7.80;;
49824;SDS011;35714;55.708;37.478;2023-09-12T09:00:07;10.73;;;7.85;;
49824;SDS011;35714;55.708;37.478;2023-09-12T09:02:36;10.38;;;7.35;;
49824;SDS011;35714;55.708;37.478;2023-09-12T09:05:04;10.35;;;8.45;;
49824;SDS011;35714;55.708;37.478;2023-09-12T09:07:35;14.43;;;8.82;;
49824;SDS011;35714;55.708;37.478;2023-09-12T09:10:03;9.40;;;7.65;;
49824;SDS011;35714;55.708;37.478;2023-09-12T09:12:31;10.30;;;8.13;;
49824;SDS011;35714;55.708;37.478;2023-09-12T09:14:57;9.80;;;7.70;;
49824;SDS011;35714;55.708;37.478;2023-09-12T09:17:23;10.30;;;7.57;;
49824;SDS011;35714;55.708;37.478;2023-09-12T09:19:49;8.93;;;6.43;;
49824;SDS011;35714;55.708;37.478;2023-09-12T09:22:15;8.70;;;6.57;;
49824;SDS011;35714;55.708;37.478;2023-09-12T09:24:41;10.00;;;7.03;;
49824;SDS011;35714;55.708;37.478;2023-09-12T09:27:07;12.05;;;7.95;;
49824;SDS011;35714;55.708;37.478;2023-09-12T09:29:32;9.00;;;6.75;;
49824;SDS011;35714;55.708;37.478;2023-09-12T09:32:16;8.90;;;7.00;;
49824;SDS011;35714;55.708;37.478;2023-09-12T09:34:43;11.07;;;7.10;;
49824;SDS011;35714;55.708;37.478;2023-09-12T09:37:09;10.07;;;7.47;;
49824;SDS011;35714;55.708;37.478;2023-09-12T09:39:35;10.10;;;7.28;;
49824;SDS011;35714;55.708;37.478;2023-09-12T09:42:01;8.90;;;6.95;;
49824;SDS011;35714;55.708;37.478;2023-09-12T09:44:27;9.98;;;7.10;;
49824;SDS011;35714;55.708;37.478;2023-09-12T09:47:02;11.43;;;8.57;;
49824;SDS011;35714;55.708;37.478;2023-09-12T09:49:30;10.60;;;7.63;;
49824;SDS011;35714;55.708;37.478;2023-09-12T09:51:59;11.85;;;8.13;;
49824;SDS011;35714;55.708;37.478;2023-09-12T09:54:28;11.57;;;7.93;;
49824;SDS011;35714;55.708;37.478;2023-09-12T09:56:54;11.43;;;7.65;;
49824;SDS011;35714;55.708;37.478;2023-09-12T09:59:22;9.65;;;7.43;;
49824;SDS011;35714;55.708;37.478;2023-09-12T10:01:50;9.15;;;7.47;;
49824;SDS011;35714;55.708;37.478;2023-09-12T10:04:17;10.10;;;7.05;;
49824;SDS011;35714;55.708;37.478;2023-09-12T10:06:44;8.95;;;7.60;;
49824;SDS011;35714;55.708;37.478;2023-09-12T10:09:12;11.68;;;8.02;;
49824;SDS011;35714;55.708;37.478;2023-09-12T10:11:39;9.27;;;7.10;;
49824;SDS011;35714;55.708;37.478;2023-09-12T10:14:06;9.38;;;7.35;;
49824;SDS011;35714;55.708;37.478;2023-09-12T10:16:33;12.20;;;6.82;;
49824;SDS011;35714;55.708;37.478;2023-09-12T10:21:30;9.82;;;6.60;;
49824;SDS011;35714;55.708;37.478;2023-09-12T10:23:59;11.70;;;8.38;;
49824;SDS011;35714;55.708;37.478;2023-09-12T10:26:27;10.48;;;7.55;;
49824;SDS011;35714;55.708;37.478;2023-09-12T10:28:57;12.43;;;8.38;;
49824;SDS011;35714;55.708;37.478;2023-09-12T10:31:24;12.77;;;8.32;;
49824;SDS011;35714;55.708;37.478;2023-09-12T10:33:51;18.08;;;8.98;;
49824;SDS011;35714;55.708;37.478;2023-09-12T10:36:19;11.80;;;7.40;;
49824;SDS011;35714;55.708;37.478;2023-09-12T10:38:46;10.50;;;7.88;;
49824;SDS011;35714;55.708;37.478;2023-09-12T10:41:14;9.52;;;7.00;;
49824;SDS011;35714;55.708;37.478;2023-09-12T10:43:41;9.45;;;6.80;;
49824;SDS011;35714;55.708;37.478;2023-09-12T10:46:12;10.80;;;6.90;;
49824;SDS011;35714;55.708;37.478;2023-09-12T10:48:38;9.77;;;7.10;;
49824;SDS011;35714;55.708;37.478;2023-09-12T10:51:06;11.23;;;6.78;;
49824;SDS011;35714;55.708;37.478;2023-09-12T10:53:33;9.00;;;5.40;;
49824;SDS011;35714;55.708;37.478;2023-09-12T10:56:16;8.43;;;6.50;;
49824;SDS011;35714;55.708;37.478;2023-09-12T11:01:30;10.02;;;7.10;;
49824;SDS011;35714;55.708;37.478;2023-09-12T11:03:57;9.27;;;5.88;;
49824;SDS011;35714;55.708;37.478;2023-09-12T11:06:23;9.23;;;6.20;;
49824;SDS011;35714;55.708;37.478;2023-09-12T11:11:42;6.47;;;5.20;;
49824;SDS011;35714;55.708;37.478;2023-09-12T11:14:09;7.82;;;5.82;;
49824;SDS011;35714;55.708;37.478;2023-09-12T11:16:35;10.50;;;6.10;;
49824;SDS011;35714;55.708;37.478;2023-09-12T11:19:17;8.15;;;5.70;;
49824;SDS011;35714;55.708;37.478;2023-09-12T11:21:46;8.93;;;6.50;;
49824;SDS011;35714;55.708;37.478;2023-09-12T11:24:13;11.35;;;6.75;;
49824;SDS011;35714;55.708;37.478;2023-09-12T11:26:52;10.70;;;6.13;;
49824;SDS011;35714;55.708;37.478;2023-09-12T11:29:19;9.23;;;6.65;;
49824;SDS011;35714;55.708;37.478;2023-09-12T11:31:52;11.27;;;5.93;;
49824;SDS011;35714;55.708;37.478;2023-09-12T11:34:19;7.65;;;4.82;;
49824;SDS011;35714;55.708;37.478;2023-09-12T11:36:45;6.93;;;4.85;;
49824;SDS011;35714;55.708;37.478;2023-09-12T11:39:24;8.63;;;4.38;;
49824;SDS011;35714;55.708;37.478;2023-09-12T11:41:51;10.02;;;4.38;;
49824;SDS011;35714;55.708;37.478;2023-09-12T11:44:18;6.75;;;4.50;;
49824;SDS011;35714;55.708;37.478;2023-09-12T11:46:46;9.40;;;4.85;;
49824;SDS011;35714;55.708;37.478;2023-09-12T11:49:14;6.85;;;4.60;;
49824;SDS011;35714;55.708;37.478;2023-09-12T11:51:47;9.43;;;4.43;;
49824;SDS011;35714;55.708;37.478;2023-09-12T11:54:18;7.78;;;4.65;;
49824;SDS011;35714;55.708;37.478;2023-09-12T11:56:46;7.85;;;5.20;;
49824;SDS011;35714;55.708;37.478;2023-09-12T11:59:13;6.03;;;4.68;;
49824;SDS011;35714;55.708;37.478;2023-09-12T12:01:39;7.53;;;4.03;;
49824;SDS011;35714;55.708;37.478;2023-09-12T12:04:05;11.27;;;4.50;;
49824;SDS011;35714;55.708;37.478;2023-09-12T12:06:32;8.50;;;4.20;;
49824;SDS011;35714;55.708;37.478;2023-09-12T12:08:58;8.05;;;4.47;;
49824;SDS011;35714;55.708;37.478;2023-09-12T12:11:27;6.18;;;3.75;;
49824;SDS011;35714;55.708;37.478;2023-09-12T12:13:53;10.35;;;4.47;;
49824;SDS011;35714;55.708;37.478;2023-09-12T12:16:19;9.45;;;4.75;;
49824;SDS011;35714;55.708;37.478;2023-09-12T12:18:45;6.30;;;4.07;;
49824;SDS011;35714;55.708;37.478;2023-09-12T12:21:11;7.35;;;3.95;;
49824;SDS011;35714;55.708;37.478;2023-09-12T12:23:37;8.85;;;4.72;;
49824;SDS011;35714;55.708;37.478;2023-09-12T12:26:03;8.02;;;3.85;;
49824;SDS011;35714;55.708;37.478;2023-09-12T12:28:31;6.88;;;4.15;;
49824;SDS011;35714;55.708;37.478;2023-09-12T12:30:58;5.43;;;3.85;;
49824;SDS011;35714;55.708;37.478;2023-09-12T12:33:24;6.03;;;4.00;;
49824;SDS011;35714;55.708;37.478;2023-09-12T12:35:58;6.47;;;4.40;;
49824;SDS011;35714;55.708;37.478;2023-09-12T12:38:31;6.63;;;4.05;;
49824;SDS011;35714;55.708;37.478;2023-09-12T12:41:01;7.40;;;4.00;;
49824;SDS011;35714;55.708;37.478;2023-09-12T12:43:27;6.15;;;4.00;;
49824;SDS011;35714;55.708;37.478;2023-09-12T12:45:56;6.60;;;3.53;;
49824;SDS011;35714;55.708;37.478;2023-09-12T12:48:33;4.80;;;3.42;;
49824;SDS011;35714;55.708;37.478;2023-09-12T12:51:11;7.45;;;3.38;;
49824;SDS011;35714;55.708;37.478;2023-09-12T12:53:46;7.72;;;3.97;;
49824;SDS011;35714;55.708;37.478;2023-09-12T12:56:17;6.43;;;3.97;;
49824;SDS011;35714;55.708;37.478;2023-09-12T12:58:51;9.40;;;4.00;;
49824;SDS011;35714;55.708;37.478;2023-09-12T13:01:18;7.78;;;4.03;;
49824;SDS011;35714;55.708;37.478;2023-09-12T13:03:44;6.38;;;3.92;;
49824;SDS011;35714;55.708;37.478;2023-09-12T13:06:10;7.55;;;4.07;;
49824;SDS011;35714;55.708;37.478;2023-09-12T13:08:40;5.90;;;3.95;;
49824;SDS011;35714;55.708;37.478;2023-09-12T13:11:07;4.85;;;3.60;;
49824;SDS011;35714;55.708;37.478;2023-09-12T13:13:34;8.63;;;4.18;;
49824;SDS011;35714;55.708;37.478;2023-09-12T13:16:02;7.20;;;4.35;;
49824;SDS011;35714;55.708;37.478;2023-09-12T13:18:33;7.25;;;3.72;;
49824;SDS011;35714;55.708;37.478;2023-09-12T13:20:59;8.35;;;4.20;;
49824;SDS011;35714;55.708;37.478;2023-09-12T13:23:25;6.35;;;3.78;;
49824;SDS011;35714;55.708;37.478;2023-09-12T13:25:52;6.88;;;3.85;;
49824;SDS011;35714;55.708;37.478;2023-09-12T13:28:18;9.63;;;3.80;;
49824;SDS011;35714;55.708;37.478;2023-09-12T13:30:44;7.50;;;3.50;;
49824;SDS011;35714;55.708;37.478;2023-09-12T13:33:13;6.13;;;3.78;;
49824;SDS011;35714;55.708;37.478;2023-09-12T13:35:40;6.15;;;3.72;;
49824;SDS011;35714;55.708;37.478;2023-09-12T13:38:07;5.63;;;3.58;;
49824;SDS011;35714;55.708;37.478;2023-09-12T13:40:38;6.30;;;3.50;;
49824;SDS011;35714;55.708;37.478;2023-09-12T13:43:05;6.07;;;3.92;;
49824;SDS011;35714;55.708;37.478;2023-09-12T13:45:31;5.93;;;3.80;;
49824;SDS011;35714;55.708;37.478;2023-09-12T13:47:58;8.35;;;3.67;;
49824;SDS011;35714;55.708;37.478;2023-09-12T13:50:25;6.07;;;3.70;;
49824;SDS011;35714;55.708;37.478;2023-09-12T13:52:52;7.88;;;3.70;;
49824;SDS011;35714;55.708;37.478;2023-09-12T13:55:19;6.28;;;3.35;;
49824;SDS011;35714;55.708;37.478;2023-09-12T13:57:45;8.20;;;4.38;;
49824;SDS011;35714;55.708;37.478;2023-09-12T14:00:11;5.63;;;3.95;;
49824;SDS011;35714;55.708;37.478;2023-09-12T14:02:37;6.43;;;3.65;;
49824;SDS011;35714;55.708;37.478;2023-09-12T14:05:03;6.85;;;3.72;;
49824;SDS011;35714;55.708;37.478;2023-09-12T14:07:29;6.68;;;3.75;;
49824;SDS011;35714;55.708;37.478;2023-09-12T14:09:55;5.72;;;3.70;;
49824;SDS011;35714;55.708;37.478;2023-09-12T14:12:23;5.00;;;2.97;;
49824;SDS011;35714;55.708;37.478;2023-09-12T14:14:49;6.63;;;3.80;;
49824;SDS011;35714;55.708;37.478;2023-09-12T14:17:15;6.43;;;3.88;;
49824;SDS011;35714;55.708;37.478;2023-09-12T14:19:40;7.30;;;4.47;;
49824;SDS011;35714;55.708;37.478;2023-09-12T14:22:06;6.72;;;3.63;;
49824;SDS011;35714;55.708;37.478;2023-09-12T14:24:32;8.73;;;3.95;;
49824;SDS011;35714;55.708;37.478;2023-09-12T14:26:58;8.45;;;4.30;;
49824;SDS011;35714;55.708;37.478;2023-09-12T14:29:23;9.48;;;4.05;;
49824;SDS011;35714;55.708;37.478;2023-09-12T14:31:52;5.68;;;3.72;;
49824;SDS011;35714;55.708;37.478;2023-09-12T14:34:23;6.57;;;4.25;;